Cranberry Gap, North Carolina
Current Conditions -  °F | °C
As of 11:55 AM on Tuesday 27 Jan 2015 (Local Time) from KTNB Reporting Station
Broken Clouds Broken Clouds  
Wind Chill: 11°   Ceiling: 2400
Heat Index: 25°   Visibility: 10mi
Dew Point: 15°   Wind: 18mph
Humidity: 68%   Direction: 300°WNW
Pressure: 29.79"   Gusts: 24mph
Location:  36.0227°N, 81.9499°W
Report Text: KTNB 271655Z AUTO 30016G21KT 10SM BKN024 M04/M09 A2979 RMK AO2 T10401092
Loading
Personal Weather Stations






























Interactive Weather Map New forecast layout! Learn more

10-Day Weather Forecast

Advertisements
Track Severe Weather on mobile